Forecasts are only available for sites displaying the forecast symbol.

Some water levels are actually in metres AHD (Australian Height Datum), click individual sites for more details.

Scroll for more >

River gauges, storages, and weirs in the Murray–Darling Basin

Typesort descending Location River Water level Flow Volume Release Water temp Salinity Rainfall
River Gauge Tocumwal Murray 1.8 m 22/09/2020 2:45 7081 ML/Day 22/09/2020 2:45 Not measured Not measured 17.1°C 22/09/2020 2:45 39.2 μS/cm 22/09/2020 2:45 Not measured Full data
River Gauge Edward Escape Wakool -0.08 m 22/09/2020 2:45 0.00 ML/Day 9/09/2020 2:15 Not measured Not measured 16.2°C 22/09/2020 2:45 71.7 μS/cm 22/09/2020 2:45 Not measured Full data
River Gauge Rochester Campaspe 3.02 m 22/09/2020 2:45 1092 ML/Day 22/09/2020 2:45 Not measured Not measured 14.1°C 22/09/2020 2:45 583.9 μS/cm 22/09/2020 2:45 0.00 mm 20/09/2020 9:00 Full data
River Gauge Swan Hill Murray 1.38 m 22/09/2020 2:45 7254 ML/Day 22/09/2020 2:45 Not measured Not measured 16.5°C 22/09/2020 2:45 112.1 μS/cm 22/09/2020 2:45 Not measured Full data
River Gauge Bandiana Kiewa 1.84 m 22/09/2020 2:45 1723 ML/Day 22/09/2020 2:45 Not measured Not measured 14.7°C 22/09/2020 2:45 50.7 μS/cm 22/09/2020 2:45 Not measured Full data
River Gauge Kerang Loddon 0.42 m 22/09/2020 2:45 270 ML/Day 22/09/2020 2:45 Not measured Not measured 16.6°C 22/09/2020 2:45 297.4 μS/cm 22/09/2020 2:45 Not measured Full data
River Gauge Morgan Downstream Murray Not measured Not measured Not measured 6516.8 ML/d22/09/2020 2:45 Not measured 180.0 μS/cm 22/09/2020 0:45 Not measured Full data
River Gauge Frenchman Creek Murray 27.36 m 21/09/2020 7:45 Not measured Not measured 3956.5 ML/d21/09/2020 7:45 Not measured Not measured Not measured Full data
River Gauge Edward River Offtake Murray 2.16 m 22/09/2020 3:00 1230 ML/Day 22/09/2020 3:00 Not measured Not measured 17.7°C 22/09/2020 2:45 53.9 μS/cm 22/09/2020 2:45 Not measured Full data
River Gauge Barmah Choke Murray 1.92 m 22/09/2020 2:45 4839 ML/Day 22/09/2020 2:45 Not measured Not measured Not measured Not measured Not measured Full data
River Gauge Murray Bridge Murray 0.84 m 22/09/2020 2:45 Not measured Not measured Not measured 16.0°C 22/09/2020 2:45 256.8 μS/cm 22/09/2020 2:45 Not measured Full data
River Gauge Wakool Junction Murray 3.02 m 22/09/2020 2:45 8213 ML/Day 22/09/2020 2:45 Not measured Not measured 16.6°C 22/09/2020 2:45 114.7 μS/cm 22/09/2020 2:45 Not measured Full data
River Gauge Doctors Point Murray 2 m 22/09/2020 3:15 4235 ML/Day 22/09/2020 3:15 Not measured Not measured 11.3°C 22/09/2020 3:15 214.9 μS/cm 22/09/2020 3:15 Not measured Full data
River Gauge Albury (Union Bridge) Murray 1.07 m 22/09/2020 3:15 Not measured Not measured Not measured 12.4°C 22/09/2020 3:15 52.1 μS/cm 22/09/2020 3:15 Not measured Full data
River Gauge Hinnomunjie Mitta 1.14 m 22/09/2020 2:45 1856 ML/Day 22/09/2020 2:45 Not measured Not measured 11.8°C 22/09/2020 2:45 530.9 μS/cm 22/09/2020 2:45 0.2 mm 20/09/2020 9:00 Full data
River Gauge Gulpa Creek Offtake Murray 2.4 m 22/09/2020 2:45 252 ML/Day 22/09/2020 2:45 Not measured Not measured Not measured Not measured Not measured Full data
River Gauge Redcliffs Murray Not measured Not measured Not measured Not measured Not measured 165.1 μS/cm 21/09/2020 7:45 Not measured Full data
River Gauge Lake Alexandrina Murray 0.84 m 21/09/2020 5:45 Not measured 1669 GL 21/09/2020 5:45 Not measured Not measured 828.7 μS/cm 22/09/2020 1:45 Not measured Full data
River Gauge Corowa Murray 1.33 m 22/09/2020 3:15 4785 ML/Day 22/09/2020 3:15 Not measured Not measured 15.5°C 22/09/2020 3:15 51.8 μS/cm 22/09/2020 3:15 Not measured Full data
River Gauge Rufus River Murray 21.2 m 21/09/2020 7:45 Not measured Not measured 3752.4 ML/d21/09/2020 7:45 Not measured 154.7 μS/cm 22/09/2020 0:45 Not measured Full data
River Gauge Echuca Wharf Murray 87.08 m 21/09/2020 7:45 Not measured Not measured Not measured Not measured Not measured Not measured Full data
River Gauge Wakool Canal Wakool 0.52 m 22/09/2020 2:45 Not measured Not measured 248.1 ML/d21/09/2020 8:45 Not measured Not measured Not measured Full data
River Gauge Wilcania Darling 1.17 m 22/09/2020 1:45 978 ML/Day 22/09/2020 1:45 Not measured Not measured 19.3°C 22/09/2020 1:45 239.8 μS/cm 22/09/2020 1:45 Not measured Full data
River Gauge Lake Albert Murray 0.81 m 21/09/2020 5:45 Not measured 282 GL 21/09/2020 5:45 Not measured Not measured Not measured Not measured Full data
River Gauge Colignan Murray 2.22 m 22/09/2020 2:45 8837 ML/Day 22/09/2020 2:45 Not measured Not measured 17.2°C 22/09/2020 2:45 146.8 μS/cm 22/09/2020 2:45 Not measured Full data
River Gauge Colemans Mitta 0.9 m 22/09/2020 2:45 202 ML/Day 22/09/2020 2:45 Not measured Not measured 16.3°C 22/09/2020 2:45 62.6 μS/cm 22/09/2020 2:45 Not measured Full data
River Gauge Biggara Murray 0.95 m 22/09/2020 3:15 2118 ML/Day 22/09/2020 3:15 Not measured Not measured 10.6°C 22/09/2020 3:15 36.5 μS/cm 22/09/2020 3:15 0.2 mm 20/09/2020 9:00 Full data
River Gauge Tauwitchere Barrage Murray 0.76 m 22/09/2020 2:45 Not measured Not measured Not measured Not measured Not measured Not measured Full data
River Gauge Tallandoon Mitta 1.61 m 22/09/2020 2:45 1001 ML/Day 22/09/2020 2:45 Not measured Not measured 13.4°C 22/09/2020 2:45 40.5 μS/cm 22/09/2020 2:45 Not measured Full data
River Gauge Bringenbrong Bridge Murray 1.57 m 22/09/2020 3:15 4154 ML/Day 22/09/2020 3:15 Not measured Not measured Not measured Not measured Not measured Full data
River Gauge Weir 32 Upstream Darling 1.44 m 22/09/2020 2:45 398 ML/Day 22/09/2020 2:45 Not measured Not measured 17.0°C 22/09/2020 2:45 320.2 μS/cm 22/09/2020 2:45 Not measured Full data
River Gauge Mundoo Barrage Murray 0.88 m 21/09/2020 7:45 Not measured Not measured Not measured Not measured Not measured Not measured Full data
River Gauge Yarrawonga Main Channel Murray 123.22 m 22/09/2020 2:45 Not measured Not measured 420.1 ML/d22/09/2020 2:45 Not measured Not measured Not measured Full data
River Gauge Balranald Murrumbidgee 1.68 m 22/09/2020 2:45 1256 ML/Day 22/09/2020 2:45 Not measured Not measured 16.9°C 22/09/2020 2:45 222.6 μS/cm 22/09/2020 2:45 Not measured Full data
River Gauge Flow to South Australia Murray Not measured Not measured Not measured 10287.8 ML/d21/09/2020 7:45 Not measured Not measured Not measured Full data
River Gauge Torrumbarry Headworks Murray 84.5 m 22/09/2020 2:45 Not measured Not measured 975.9 ML/d22/09/2020 2:45 Not measured Not measured Not measured Full data
River Gauge Pinegrove Murray 1.77 m 22/09/2020 3:15 1270 ML/Day 22/09/2020 3:15 Not measured Not measured 15.7°C 22/09/2020 3:15 417.4 μS/cm 22/09/2020 3:15 0.00 mm 20/09/2020 9:00 Full data
River Gauge Burtundy Darling 0.7 m 22/09/2020 2:45 93 ML/Day 22/09/2020 2:45 Not measured Not measured 16.9°C 22/09/2020 2:45 323.2 μS/cm 22/09/2020 2:45 Not measured Full data
River Gauge Mulwala Canal Murray Not measured Not measured Not measured 1054.2 ML/d21/09/2020 8:45 Not measured Not measured Not measured Full data
River Gauge Peechelba Ovens 127.72 m 22/09/2020 2:45 2721 ML/Day 22/09/2020 2:45 Not measured Not measured 15.4°C 22/09/2020 2:45 49.6 μS/cm 22/09/2020 2:45 Not measured Full data
River Gauge Stoney Crossing Murray 1.45 m 22/09/2020 2:45 533 ML/Day 22/09/2020 2:45 Not measured 534.6 ML/d21/09/2020 7:45 17.7°C 22/09/2020 2:45 185.9 μS/cm 22/09/2020 2:45 Not measured Full data
River Gauge Jingellic Murray 2.2 m 22/09/2020 2:45 8936 ML/Day 22/09/2020 2:45 Not measured Not measured 13.6°C 22/09/2020 2:45 35.3 μS/cm 22/09/2020 2:45 0.00 mm 20/09/2020 9:00 Full data
River Gauge McCoy Bridge Goulburn 2.27 m 22/09/2020 2:45 2434 ML/Day 22/09/2020 2:45 Not measured Not measured 15.8°C 22/09/2020 2:45 110.6 μS/cm 22/09/2020 2:45 Not measured Full data
Storage Hume Dam Murray 186.24 m 22/09/2020 3:15 Not measured 1974 GL 22/09/2020 3:15 2606.0 ML/d21/09/2020 8:00 Not measured Not measured 0.00 mm 20/09/2020 9:00 Full data
Storage Lake Victoria Murray 26.95 m 22/09/2020 2:45 Not measured 671 GL 22/09/2020 2:45 Not measured 15.9°C 22/09/2020 2:45 112.1 μS/cm 22/09/2020 2:45 Not measured Full data
Storage Dartmouth Dam Mitta 455.58 m 22/09/2020 2:45 Not measured 2164 GL 22/09/2020 2:45 Not measured Not measured Not measured Not measured Full data
Storage Menindee Lakes Darling Not measured Not measured 471 GL 21/09/2020 7:45 Not measured Not measured Not measured Not measured Full data
Weirs Lock 2 Upstream Murray 6.29 m 22/09/2020 2:45 Not measured Not measured Not measured 17.5°C 22/09/2020 2:45 182.0 μS/cm 22/09/2020 2:45 Not measured Full data
Weirs Lock 8 Upstream Murray 24.62 m 22/09/2020 2:45 Not measured Not measured Not measured 17.2°C 22/09/2020 2:45 146.4 μS/cm 22/09/2020 2:45 Not measured Full data
Weirs Lock 1 Upstream Murray 3.36 m 22/09/2020 2:45 Not measured Not measured Not measured 17.5°C 22/09/2020 2:45 188.0 μS/cm 22/09/2020 2:45 Not measured Full data
Weirs Lock 6 Upstream Murray 19.37 m 22/09/2020 2:45 Not measured Not measured Not measured 17.4°C 22/09/2020 2:45 151.9 μS/cm 22/09/2020 2:45 Not measured Full data
Weirs Steven's Weir Upstream Edward 4.49 m 22/09/2020 3:00 Not measured Not measured Not measured Not measured Not measured Not measured Full data
Weirs Lock 5 Downstream Murray 13.74 m 22/09/2020 2:45 Not measured Not measured Not measured Not measured Not measured Not measured Full data
Weirs Lock 1 Downstream Murray 0.99 m 22/09/2020 2:45 Not measured Not measured 8927.4 ML/d21/09/2020 7:45 Not measured Not measured Not measured Full data
Weirs Steven's Weir Downstream Edward 1.29 m 22/09/2020 2:45 1031 ML/Day 22/09/2020 2:45 Not measured Not measured 16.7°C 22/09/2020 2:45 69.7 μS/cm 22/09/2020 2:45 Not measured Full data
Weirs Lock 5 Upstream Murray 16.45 m 22/09/2020 2:45 Not measured Not measured Not measured 17.7°C 22/09/2020 2:45 160.3 μS/cm 22/09/2020 2:45 Not measured Full data
Weirs Euston Weir Upstream Murray 47.62 m 21/09/2020 8:45 Not measured 37 GL 21/09/2020 7:45 Not measured Not measured Not measured 145.9 mm 5/03/2020 9:00 Full data
Weirs Euston Weir Downstream Murray 43.52 m 22/09/2020 2:45 9388 ML/Day 22/09/2020 2:45 Not measured Not measured 16.7°C 22/09/2020 2:45 146.5 μS/cm 22/09/2020 2:45 Not measured Full data
Weirs Lock 4 Downstream Murray 10.77 m 22/09/2020 2:45 Not measured Not measured Not measured Not measured Not measured Not measured Full data
Weirs Lock 4 Upstream Murray 13.5 m 22/09/2020 2:45 Not measured Not measured Not measured Not measured Not measured Not measured Full data
Weirs Yarrawonga Weir Upstream Murray 124.76 m 22/09/2020 2:45 Not measured Not measured Not measured Not measured Not measured 0.00 mm 20/09/2020 9:00 Full data
Weirs Lock 7 Downstream Murray 20.73 m 22/09/2020 1:45 Not measured Not measured Not measured Not measured Not measured Not measured Full data
Weirs Torrumbarry Weir Downstream Murray 2.57 m 22/09/2020 2:45 7617 ML/Day 22/09/2020 2:45 Not measured Not measured 16.8°C 22/09/2020 2:45 83.2 μS/cm 22/09/2020 2:45 Not measured Full data
Weirs Lock 3 Downstream Murray 6.67 m 22/09/2020 2:45 Not measured Not measured Not measured Not measured Not measured Not measured Full data
Weirs Mildura Weir downstream Murray 31.02 m 22/09/2020 2:45 Not measured Not measured Not measured 17.1°C 22/09/2020 2:45 163.0 μS/cm 22/09/2020 2:45 Not measured Full data
Weirs Yarrawonga Weir Downstream Murray 1.27 m 22/09/2020 3:00 7565 ML/Day 22/09/2020 3:00 Not measured Not measured 16.9°C 22/09/2020 3:00 57.3 μS/cm 22/09/2020 3:00 Not measured Full data
Weirs Lock 7 Upstream Murray 22.12 m 22/09/2020 1:45 Not measured Not measured Not measured 17.7°C 22/09/2020 1:45 141.7 μS/cm 22/09/2020 1:45 Not measured Full data
Weirs Torrumbarry Weir Upstream Murray 86.05 m 22/09/2020 2:45 Not measured 37 GL 21/09/2020 8:45 Not measured 16.8°C 21/09/2020 8:45 83.2 μS/cm 22/09/2020 1:45 0.00 mm 20/09/2020 9:00 Full data
Weirs Lock 3 Upstream Murray 9.83 m 22/09/2020 2:45 Not measured Not measured Not measured Not measured Not measured Not measured Full data
Weirs Lock 9 Downstream Murray 24.73 m 22/09/2020 2:45 Not measured Not measured Not measured Not measured Not measured Not measured Full data
Weirs Wentworth Weir Murray 27.77 m 22/09/2020 2:45 Not measured Not measured 8789.8 ML/d21/09/2020 8:45 Not measured 138.0 μS/cm 21/09/2020 7:45 Not measured Full data
Weirs Lock 2 Downstream Murray 3.69 m 22/09/2020 2:45 Not measured Not measured Not measured Not measured Not measured Not measured Full data
Weirs Lock 9 Upstream Murray 27.38 m 22/09/2020 2:45 Not measured Not measured Not measured 17.4°C 22/09/2020 2:45 130.6 μS/cm 22/09/2020 2:45 Not measured Full data
Weirs Lock 6 Downstream Murray 16.64 m 22/09/2020 2:45 Not measured Not measured Not measured Not measured Not measured Not measured Full data